sensor_id;sensor_type;location;lat;lon;timestamp;temperature;humidity
22337;DHT22;14992;50.844;4.418;2022-08-19T00:01:38;23.20;99.90
22337;DHT22;14992;50.844;4.418;2022-08-19T00:04:28;23.10;99.90
22337;DHT22;14992;50.844;4.418;2022-08-19T00:07:24;23.00;99.90
22337;DHT22;14992;50.844;4.418;2022-08-19T00:10:20;23.00;99.90
22337;DHT22;14992;50.844;4.418;2022-08-19T00:13:03;22.90;99.90
22337;DHT22;14992;50.844;4.418;2022-08-19T00:16:00;22.80;99.90
22337;DHT22;14992;50.844;4.418;2022-08-19T00:18:41;22.70;99.90
22337;DHT22;14992;50.844;4.418;2022-08-19T00:21:40;22.80;99.90
22337;DHT22;14992;50.844;4.418;2022-08-19T00:24:17;22.80;99.90
22337;DHT22;14992;50.844;4.418;2022-08-19T00:27:13;22.70;99.90
22337;DHT22;14992;50.844;4.418;2022-08-19T00:30:10;22.70;99.90
22337;DHT22;14992;50.844;4.418;2022-08-19T00:33:06;22.70;99.90
22337;DHT22;14992;50.844;4.418;2022-08-19T00:35:50;22.60;99.90
22337;DHT22;14992;50.844;4.418;2022-08-19T00:38:40;22.60;99.90
22337;DHT22;14992;50.844;4.418;2022-08-19T00:41:28;22.50;99.90
22337;DHT22;14992;50.844;4.418;2022-08-19T00:44:12;22.50;99.90
22337;DHT22;14992;50.844;4.418;2022-08-19T00:47:06;22.50;99.90
22337;DHT22;14992;50.844;4.418;2022-08-19T00:49:52;22.60;99.90
22337;DHT22;14992;50.844;4.418;2022-08-19T00:52:44;22.40;99.90
22337;DHT22;14992;50.844;4.418;2022-08-19T00:55:45;22.40;99.90
22337;DHT22;14992;50.844;4.418;2022-08-19T00:58:31;22.40;99.90
22337;DHT22;14992;50.844;4.418;2022-08-19T01:01:28;22.60;99.90
22337;DHT22;14992;50.844;4.418;2022-08-19T01:04:10;22.40;99.90
22337;DHT22;14992;50.844;4.418;2022-08-19T01:07:02;22.40;99.90
22337;DHT22;14992;50.844;4.418;2022-08-19T01:09:47;22.60;99.90
22337;DHT22;14992;50.844;4.418;2022-08-19T01:12:43;22.50;99.90
22337;DHT22;14992;50.844;4.418;2022-08-19T01:15:29;22.60;99.90
22337;DHT22;14992;50.844;4.418;2022-08-19T01:18:19;22.50;99.90
22337;DHT22;14992;50.844;4.418;2022-08-19T01:21:05;22.40;99.90
22337;DHT22;14992;50.844;4.418;2022-08-19T01:23:57;22.40;99.90
22337;DHT22;14992;50.844;4.418;2022-08-19T01:26:41;22.50;99.90
22337;DHT22;14992;50.844;4.418;2022-08-19T01:29:30;22.50;99.90
22337;DHT22;14992;50.844;4.418;2022-08-19T01:32:25;22.50;99.90
22337;DHT22;14992;50.844;4.418;2022-08-19T01:35:21;22.40;99.90
22337;DHT22;14992;50.844;4.418;2022-08-19T01:38:07;22.30;99.90
22337;DHT22;14992;50.844;4.418;2022-08-19T01:41:05;22.30;99.90
22337;DHT22;14992;50.844;4.418;2022-08-19T01:43:46;22.10;99.90
22337;DHT22;14992;50.844;4.418;2022-08-19T01:46:58;22.10;99.90
22337;DHT22;14992;50.844;4.418;2022-08-19T01:49:34;22.00;99.90
22337;DHT22;14992;50.844;4.418;2022-08-19T01:52:30;22.00;99.90
22337;DHT22;14992;50.844;4.418;2022-08-19T01:55:14;21.90;99.90
22337;DHT22;14992;50.844;4.418;2022-08-19T01:58:05;22.10;99.90
22337;DHT22;14992;50.844;4.418;2022-08-19T02:00:47;22.10;99.90
22337;DHT22;14992;50.844;4.418;2022-08-19T02:03:36;22.00;99.90
22337;DHT22;14992;50.844;4.418;2022-08-19T02:06:17;22.00;99.90
22337;DHT22;14992;50.844;4.418;2022-08-19T02:09:07;22.00;99.90
22337;DHT22;14992;50.844;4.418;2022-08-19T02:11:49;22.00;99.90
22337;DHT22;14992;50.844;4.418;2022-08-19T02:14:39;22.00;99.90
22337;DHT22;14992;50.844;4.418;2022-08-19T02:17:21;21.90;99.90
22337;DHT22;14992;50.844;4.418;2022-08-19T02:20:17;22.00;99.90
22337;DHT22;14992;50.844;4.418;2022-08-19T02:22:58;22.00;99.90
22337;DHT22;14992;50.844;4.418;2022-08-19T02:25:55;21.80;99.90
22337;DHT22;14992;50.844;4.418;2022-08-19T02:28:36;21.60;99.90
22337;DHT22;14992;50.844;4.418;2022-08-19T02:31:33;21.60;99.90
22337;DHT22;14992;50.844;4.418;2022-08-19T02:34:15;21.50;99.90
22337;DHT22;14992;50.844;4.418;2022-08-19T02:37:12;21.50;99.90
22337;DHT22;14992;50.844;4.418;2022-08-19T02:40:12;21.70;99.90
22337;DHT22;14992;50.844;4.418;2022-08-19T02:43:01;21.70;99.90
22337;DHT22;14992;50.844;4.418;2022-08-19T02:45:43;21.60;99.90
22337;DHT22;14992;50.844;4.418;2022-08-19T02:48:33;21.60;99.90
22337;DHT22;14992;50.844;4.418;2022-08-19T02:51:31;21.60;99.90
22337;DHT22;14992;50.844;4.418;2022-08-19T02:54:14;21.50;99.90
22337;DHT22;14992;50.844;4.418;2022-08-19T02:57:10;21.40;99.90
22337;DHT22;14992;50.844;4.418;2022-08-19T02:59:51;21.40;99.90
22337;DHT22;14992;50.844;4.418;2022-08-19T03:02:40;21.40;99.90
22337;DHT22;14992;50.844;4.418;2022-08-19T03:05:23;21.30;99.90
22337;DHT22;14992;50.844;4.418;2022-08-19T03:08:32;21.30;99.90
22337;DHT22;14992;50.844;4.418;2022-08-19T03:11:22;21.10;99.90
22337;DHT22;14992;50.844;4.418;2022-08-19T03:14:08;21.10;99.90
22337;DHT22;14992;50.844;4.418;2022-08-19T03:16:56;21.10;99.90
22337;DHT22;14992;50.844;4.418;2022-08-19T03:19:37;21.10;99.90
22337;DHT22;14992;50.844;4.418;2022-08-19T03:22:27;21.00;99.90
22337;DHT22;14992;50.844;4.418;2022-08-19T03:25:23;21.10;99.90
22337;DHT22;14992;50.844;4.418;2022-08-19T03:28:04;21.10;99.90
22337;DHT22;14992;50.844;4.418;2022-08-19T03:31:03;21.10;99.90
22337;DHT22;14992;50.844;4.418;2022-08-19T03:34:04;21.00;99.90
22337;DHT22;14992;50.844;4.418;2022-08-19T03:37:06;20.90;99.90
22337;DHT22;14992;50.844;4.418;2022-08-19T03:39:48;20.90;99.90
22337;DHT22;14992;50.844;4.418;2022-08-19T03:42:44;20.80;99.90
22337;DHT22;14992;50.844;4.418;2022-08-19T03:45:28;20.80;99.90
22337;DHT22;14992;50.844;4.418;2022-08-19T03:48:17;20.80;99.90
22337;DHT22;14992;50.844;4.418;2022-08-19T03:50:59;20.80;99.90
22337;DHT22;14992;50.844;4.418;2022-08-19T03:53:48;20.70;99.90
22337;DHT22;14992;50.844;4.418;2022-08-19T03:56:31;20.70;99.90
22337;DHT22;14992;50.844;4.418;2022-08-19T03:59:24;20.60;99.90
22337;DHT22;14992;50.844;4.418;2022-08-19T04:02:20;20.60;99.90
22337;DHT22;14992;50.844;4.418;2022-08-19T04:05:01;20.60;99.90
22337;DHT22;14992;50.844;4.418;2022-08-19T04:07:50;20.60;99.90
22337;DHT22;14992;50.844;4.418;2022-08-19T04:10:35;20.60;99.90
22337;DHT22;14992;50.844;4.418;2022-08-19T04:13:25;20.50;99.90
22337;DHT22;14992;50.844;4.418;2022-08-19T04:16:08;20.50;99.90
22337;DHT22;14992;50.844;4.418;2022-08-19T04:19:00;20.50;99.90
22337;DHT22;14992;50.844;4.418;2022-08-19T04:21:44;20.30;99.90
22337;DHT22;14992;50.844;4.418;2022-08-19T04:24:35;20.20;99.90
22337;DHT22;14992;50.844;4.418;2022-08-19T04:27:17;20.30;99.90
22337;DHT22;14992;50.844;4.418;2022-08-19T04:30:14;20.30;99.90
22337;DHT22;14992;50.844;4.418;2022-08-19T04:33:14;20.10;99.90
22337;DHT22;14992;50.844;4.418;2022-08-19T04:36:16;20.10;99.90
22337;DHT22;14992;50.844;4.418;2022-08-19T04:39:01;20.20;99.90
22337;DHT22;14992;50.844;4.418;2022-08-19T04:41:57;20.20;99.90
22337;DHT22;14992;50.844;4.418;2022-08-19T04:45:04;20.10;99.90
22337;DHT22;14992;50.844;4.418;2022-08-19T04:47:55;20.10;99.90
22337;DHT22;14992;50.844;4.418;2022-08-19T04:51:07;20.20;99.90
22337;DHT22;14992;50.844;4.418;2022-08-19T04:53:50;20.10;99.90
22337;DHT22;14992;50.844;4.418;2022-08-19T04:56:47;20.00;99.90
22337;DHT22;14992;50.844;4.418;2022-08-19T04:59:28;19.90;99.90
22337;DHT22;14992;50.844;4.418;2022-08-19T05:02:23;19.90;99.90
22337;DHT22;14992;50.844;4.418;2022-08-19T05:05:06;20.10;99.90
22337;DHT22;14992;50.844;4.418;2022-08-19T05:07:55;20.10;99.90
22337;DHT22;14992;50.844;4.418;2022-08-19T05:10:37;20.10;99.90
22337;DHT22;14992;50.844;4.418;2022-08-19T05:13:26;20.10;99.90
22337;DHT22;14992;50.844;4.418;2022-08-19T05:16:09;20.00;99.90
22337;DHT22;14992;50.844;4.418;2022-08-19T05:18:58;20.10;99.90
22337;DHT22;14992;50.844;4.418;2022-08-19T05:21:59;20.00;99.90
22337;DHT22;14992;50.844;4.418;2022-08-19T05:24:58;20.10;99.90
22337;DHT22;14992;50.844;4.418;2022-08-19T05:27:53;20.00;99.90
22337;DHT22;14992;50.844;4.418;2022-08-19T05:30:48;20.10;99.90
22337;DHT22;14992;50.844;4.418;2022-08-19T05:33:44;20.00;99.90
22337;DHT22;14992;50.844;4.418;2022-08-19T05:36:26;20.10;99.90
22337;DHT22;14992;50.844;4.418;2022-08-19T05:39:19;20.20;99.90
22337;DHT22;14992;50.844;4.418;2022-08-19T05:42:03;20.30;99.90
22337;DHT22;14992;50.844;4.418;2022-08-19T05:44:53;20.20;99.90
22337;DHT22;14992;50.844;4.418;2022-08-19T05:47:34;20.50;99.90
22337;DHT22;14992;50.844;4.418;2022-08-19T05:50:30;20.50;99.90
22337;DHT22;14992;50.844;4.418;2022-08-19T05:53:11;20.40;99.90
22337;DHT22;14992;50.844;4.418;2022-08-19T05:56:12;20.30;99.90
22337;DHT22;14992;50.844;4.418;2022-08-19T05:58:54;20.50;99.90
22337;DHT22;14992;50.844;4.418;2022-08-19T06:01:52;20.50;99.90
22337;DHT22;14992;50.844;4.418;2022-08-19T06:04:34;20.60;99.90
22337;DHT22;14992;50.844;4.418;2022-08-19T06:07:30;20.80;99.90
22337;DHT22;14992;50.844;4.418;2022-08-19T06:10:11;20.80;99.90
22337;DHT22;14992;50.844;4.418;2022-08-19T06:13:01;20.90;99.90
22337;DHT22;14992;50.844;4.418;2022-08-19T06:15:43;20.90;99.90
22337;DHT22;14992;50.844;4.418;2022-08-19T06:18:33;20.90;99.90
22337;DHT22;14992;50.844;4.418;2022-08-19T06:21:14;21.00;99.90
22337;DHT22;14992;50.844;4.418;2022-08-19T06:24:04;21.00;99.90
22337;DHT22;14992;50.844;4.418;2022-08-19T06:26:48;21.10;99.90
22337;DHT22;14992;50.844;4.418;2022-08-19T06:29:42;21.20;99.90
22337;DHT22;14992;50.844;4.418;2022-08-19T06:32:38;21.30;99.90
22337;DHT22;14992;50.844;4.418;2022-08-19T06:35:37;21.30;99.90
22337;DHT22;14992;50.844;4.418;2022-08-19T06:38:19;21.40;99.90
22337;DHT22;14992;50.844;4.418;2022-08-19T06:41:15;21.40;99.90
22337;DHT22;14992;50.844;4.418;2022-08-19T06:43:58;21.60;99.90
22337;DHT22;14992;50.844;4.418;2022-08-19T06:46:55;21.50;99.90
22337;DHT22;14992;50.844;4.418;2022-08-19T06:49:47;21.50;99.90
22337;DHT22;14992;50.844;4.418;2022-08-19T06:52:42;21.60;99.90
22337;DHT22;14992;50.844;4.418;2022-08-19T06:55:23;21.70;99.90
22337;DHT22;14992;50.844;4.418;2022-08-19T06:58:13;21.70;99.90
22337;DHT22;14992;50.844;4.418;2022-08-19T07:00:54;21.70;99.90
22337;DHT22;14992;50.844;4.418;2022-08-19T07:03:49;21.70;99.90
22337;DHT22;14992;50.844;4.418;2022-08-19T07:06:31;21.70;99.90
22337;DHT22;14992;50.844;4.418;2022-08-19T07:09:25;21.70;99.90
22337;DHT22;14992;50.844;4.418;2022-08-19T07:12:20;21.80;99.90
22337;DHT22;14992;50.844;4.418;2022-08-19T07:15:04;21.90;99.90
22337;DHT22;14992;50.844;4.418;2022-08-19T07:17:52;21.90;99.90
22337;DHT22;14992;50.844;4.418;2022-08-19T07:20:34;21.80;99.90
22337;DHT22;14992;50.844;4.418;2022-08-19T07:23:24;22.00;99.90
22337;DHT22;14992;50.844;4.418;2022-08-19T07:26:06;22.20;99.90
22337;DHT22;14992;50.844;4.418;2022-08-19T07:28:56;22.10;99.90
22337;DHT22;14992;50.844;4.418;2022-08-19T07:31:53;22.20;99.90
22337;DHT22;14992;50.844;4.418;2022-08-19T07:34:36;22.10;99.90
22337;DHT22;14992;50.844;4.418;2022-08-19T07:37:33;22.20;99.90
22337;DHT22;14992;50.844;4.418;2022-08-19T07:40:17;22.20;99.90
22337;DHT22;14992;50.844;4.418;2022-08-19T07:43:06;22.40;99.90
22337;DHT22;14992;50.844;4.418;2022-08-19T07:45:51;22.40;99.90
22337;DHT22;14992;50.844;4.418;2022-08-19T07:48:41;22.50;99.90
22337;DHT22;14992;50.844;4.418;2022-08-19T07:51:23;22.40;99.90
22337;DHT22;14992;50.844;4.418;2022-08-19T07:54:18;22.40;99.90
22337;DHT22;14992;50.844;4.418;2022-08-19T07:57:00;22.70;99.90
22337;DHT22;14992;50.844;4.418;2022-08-19T07:59:49;22.70;99.90
22337;DHT22;14992;50.844;4.418;2022-08-19T08:02:38;22.90;99.90
22337;DHT22;14992;50.844;4.418;2022-08-19T08:05:35;22.70;99.90
22337;DHT22;14992;50.844;4.418;2022-08-19T08:08:34;22.80;99.90
22337;DHT22;14992;50.844;4.418;2022-08-19T08:11:51;22.80;99.90
22337;DHT22;14992;50.844;4.418;2022-08-19T08:14:43;22.90;99.90
22337;DHT22;14992;50.844;4.418;2022-08-19T08:17:39;22.90;99.90
22337;DHT22;14992;50.844;4.418;2022-08-19T08:20:24;22.90;99.90
22337;DHT22;14992;50.844;4.418;2022-08-19T08:23:13;23.00;99.90
22337;DHT22;14992;50.844;4.418;2022-08-19T08:25:59;23.30;99.90
22337;DHT22;14992;50.844;4.418;2022-08-19T08:28:50;23.40;99.90
22337;DHT22;14992;50.844;4.418;2022-08-19T08:31:51;23.60;99.90
22337;DHT22;14992;50.844;4.418;2022-08-19T08:34:33;23.80;99.90
22337;DHT22;14992;50.844;4.418;2022-08-19T08:37:21;23.70;99.90
22337;DHT22;14992;50.844;4.418;2022-08-19T08:40:20;23.70;99.90
22337;DHT22;14992;50.844;4.418;2022-08-19T08:43:07;23.80;99.90
22337;DHT22;14992;50.844;4.418;2022-08-19T08:46:06;23.90;99.90
22337;DHT22;14992;50.844;4.418;2022-08-19T08:48:47;23.90;99.90
22337;DHT22;14992;50.844;4.418;2022-08-19T08:51:47;23.80;99.90
22337;DHT22;14992;50.844;4.418;2022-08-19T08:54:35;23.50;99.90
22337;DHT22;14992;50.844;4.418;2022-08-19T08:57:36;23.40;99.90
22337;DHT22;14992;50.844;4.418;2022-08-19T09:00:36;23.50;99.90
22337;DHT22;14992;50.844;4.418;2022-08-19T09:03:20;23.50;99.90
22337;DHT22;14992;50.844;4.418;2022-08-19T09:06:28;23.50;99.90
22337;DHT22;14992;50.844;4.418;2022-08-19T09:09:16;23.10;99.90
22337;DHT22;14992;50.844;4.418;2022-08-19T09:12:22;23.20;99.90
22337;DHT22;14992;50.844;4.418;2022-08-19T09:15:07;23.50;99.90
22337;DHT22;14992;50.844;4.418;2022-08-19T09:17:59;23.60;99.90
22337;DHT22;14992;50.844;4.418;2022-08-19T09:20:52;23.60;99.90
22337;DHT22;14992;50.844;4.418;2022-08-19T09:23:40;23.70;99.90
22337;DHT22;14992;50.844;4.418;2022-08-19T09:26:24;23.80;99.90
22337;DHT22;14992;50.844;4.418;2022-08-19T09:29:31;24.00;99.90
22337;DHT22;14992;50.844;4.418;2022-08-19T09:32:26;23.90;99.90
22337;DHT22;14992;50.844;4.418;2022-08-19T09:35:28;23.90;99.90
22337;DHT22;14992;50.844;4.418;2022-08-19T09:38:26;24.10;99.90
22337;DHT22;14992;50.844;4.418;2022-08-19T09:41:24;23.90;99.90
22337;DHT22;14992;50.844;4.418;2022-08-19T09:44:06;24.00;99.90
22337;DHT22;14992;50.844;4.418;2022-08-19T09:47:01;23.90;99.90
22337;DHT22;14992;50.844;4.418;2022-08-19T09:49:42;24.10;99.90
22337;DHT22;14992;50.844;4.418;2022-08-19T09:52:38;24.30;99.90
22337;DHT22;14992;50.844;4.418;2022-08-19T09:55:31;24.40;99.90
22337;DHT22;14992;50.844;4.418;2022-08-19T09:58:20;24.30;99.90
22337;DHT22;14992;50.844;4.418;2022-08-19T10:01:18;24.30;99.90
22337;DHT22;14992;50.844;4.418;2022-08-19T10:04:00;24.40;99.90
22337;DHT22;14992;50.844;4.418;2022-08-19T10:07:01;24.30;99.90
22337;DHT22;14992;50.844;4.418;2022-08-19T10:09:42;24.40;99.90
22337;DHT22;14992;50.844;4.418;2022-08-19T10:12:39;24.40;99.90
22337;DHT22;14992;50.844;4.418;2022-08-19T10:15:21;24.50;99.90
22337;DHT22;14992;50.844;4.418;2022-08-19T10:18:24;24.60;99.90
22337;DHT22;14992;50.844;4.418;2022-08-19T10:21:10;24.50;99.90
22337;DHT22;14992;50.844;4.418;2022-08-19T10:24:02;24.50;99.90
22337;DHT22;14992;50.844;4.418;2022-08-19T10:26:58;24.40;99.90
22337;DHT22;14992;50.844;4.418;2022-08-19T10:29:42;24.60;99.90
22337;DHT22;14992;50.844;4.418;2022-08-19T10:32:39;24.80;99.90
22337;DHT22;14992;50.844;4.418;2022-08-19T10:35:20;24.80;99.90
22337;DHT22;14992;50.844;4.418;2022-08-19T10:38:09;24.90;99.90
22337;DHT22;14992;50.844;4.418;2022-08-19T10:40:50;24.90;99.90
22337;DHT22;14992;50.844;4.418;2022-08-19T10:43:40;25.00;99.90
22337;DHT22;14992;50.844;4.418;2022-08-19T10:46:32;24.90;99.90
22337;DHT22;14992;50.844;4.418;2022-08-19T10:49:18;24.80;99.90
22337;DHT22;14992;50.844;4.418;2022-08-19T10:52:07;24.60;99.90
22337;DHT22;14992;50.844;4.418;2022-08-19T10:55:12;24.80;99.90
22337;DHT22;14992;50.844;4.418;2022-08-19T10:58:24;24.80;99.90
22337;DHT22;14992;50.844;4.418;2022-08-19T11:01:05;24.90;99.90
22337;DHT22;14992;50.844;4.418;2022-08-19T11:03:55;24.60;99.90
22337;DHT22;14992;50.844;4.418;2022-08-19T11:06:38;24.60;99.90
22337;DHT22;14992;50.844;4.418;2022-08-19T11:09:27;24.60;99.90
22337;DHT22;14992;50.844;4.418;2022-08-19T11:12:09;24.50;99.90
22337;DHT22;14992;50.844;4.418;2022-08-19T11:14:59;24.80;99.90
22337;DHT22;14992;50.844;4.418;2022-08-19T11:17:41;24.80;99.90
22337;DHT22;14992;50.844;4.418;2022-08-19T11:20:37;24.80;99.90
22337;DHT22;14992;50.844;4.418;2022-08-19T11:23:19;24.50;99.90
22337;DHT22;14992;50.844;4.418;2022-08-19T11:26:15;24.40;99.90
22337;DHT22;14992;50.844;4.418;2022-08-19T11:29:12;24.50;99.90
22337;DHT22;14992;50.844;4.418;2022-08-19T11:32:09;24.80;99.90
22337;DHT22;14992;50.844;4.418;2022-08-19T11:34:52;24.80;99.90
22337;DHT22;14992;50.844;4.418;2022-08-19T11:37:42;24.60;99.90
22337;DHT22;14992;50.844;4.418;2022-08-19T11:40:38;24.60;99.90
22337;DHT22;14992;50.844;4.418;2022-08-19T11:43:19;24.60;99.90
22337;DHT22;14992;50.844;4.418;2022-08-19T11:46:17;24.40;99.90
22337;DHT22;14992;50.844;4.418;2022-08-19T11:48:52;24.60;99.90
22337;DHT22;14992;50.844;4.418;2022-08-19T11:51:53;24.60;99.90
22337;DHT22;14992;50.844;4.418;2022-08-19T11:54:36;24.60;99.90
22337;DHT22;14992;50.844;4.418;2022-08-19T11:57:31;24.90;99.90
22337;DHT22;14992;50.844;4.418;2022-08-19T12:00:15;24.80;99.90
22337;DHT22;14992;50.844;4.418;2022-08-19T12:03:03;24.60;99.90
22337;DHT22;14992;50.844;4.418;2022-08-19T12:05:44;24.30;99.90
22337;DHT22;14992;50.844;4.418;2022-08-19T12:08:33;24.50;99.90
22337;DHT22;14992;50.844;4.418;2022-08-19T12:11:16;24.90;99.90
22337;DHT22;14992;50.844;4.418;2022-08-19T12:14:05;25.10;99.90
22337;DHT22;14992;50.844;4.418;2022-08-19T12:16:49;25.10;99.90
22337;DHT22;14992;50.844;4.418;2022-08-19T12:19:38;25.50;99.90
22337;DHT22;14992;50.844;4.418;2022-08-19T12:22:19;25.70;99.90
22337;DHT22;14992;50.844;4.418;2022-08-19T12:25:16;26.00;99.90
22337;DHT22;14992;50.844;4.418;2022-08-19T12:27:59;26.00;99.90
22337;DHT22;14992;50.844;4.418;2022-08-19T12:30:56;26.10;99.90
22337;DHT22;14992;50.844;4.418;2022-08-19T12:33:52;26.20;99.90
22337;DHT22;14992;50.844;4.418;2022-08-19T12:36:49;26.20;99.90
22337;DHT22;14992;50.844;4.418;2022-08-19T12:39:33;26.20;99.90
22337;DHT22;14992;50.844;4.418;2022-08-19T12:42:28;26.30;99.90
22337;DHT22;14992;50.844;4.418;2022-08-19T12:45:12;26.30;99.90
22337;DHT22;14992;50.844;4.418;2022-08-19T12:48:01;26.20;99.90
22337;DHT22;14992;50.844;4.418;2022-08-19T12:51:06;26.10;99.90
22337;DHT22;14992;50.844;4.418;2022-08-19T12:53:55;26.30;99.90
22337;DHT22;14992;50.844;4.418;2022-08-19T12:56:37;26.30;99.90
22337;DHT22;14992;50.844;4.418;2022-08-19T12:59:26;26.30;99.90
22337;DHT22;14992;50.844;4.418;2022-08-19T13:02:09;26.50;99.90
22337;DHT22;14992;50.844;4.418;2022-08-19T13:04:57;26.20;99.90
22337;DHT22;14992;50.844;4.418;2022-08-19T13:07:39;26.30;99.90
22337;DHT22;14992;50.844;4.418;2022-08-19T13:10:35;26.50;99.90
22337;DHT22;14992;50.844;4.418;2022-08-19T13:13:17;26.50;99.90
22337;DHT22;14992;50.844;4.418;2022-08-19T13:16:13;26.70;99.90
22337;DHT22;14992;50.844;4.418;2022-08-19T13:18:57;26.60;99.90
22337;DHT22;14992;50.844;4.418;2022-08-19T13:21:52;26.70;99.90
22337;DHT22;14992;50.844;4.418;2022-08-19T13:24:35;26.60;99.90
22337;DHT22;14992;50.844;4.418;2022-08-19T13:27:26;26.30;99.90
22337;DHT22;14992;50.844;4.418;2022-08-19T13:30:22;26.50;99.90
22337;DHT22;14992;50.844;4.418;2022-08-19T13:33:34;26.70;99.90
22337;DHT22;14992;50.844;4.418;2022-08-19T13:36:31;26.60;99.90
22337;DHT22;14992;50.844;4.418;2022-08-19T13:39:13;26.60;99.90
22337;DHT22;14992;50.844;4.418;2022-08-19T13:42:09;26.50;99.90
22337;DHT22;14992;50.844;4.418;2022-08-19T13:45:06;26.60;99.90
22337;DHT22;14992;50.844;4.418;2022-08-19T13:47:56;26.80;99.90
22337;DHT22;14992;50.844;4.418;2022-08-19T13:50:54;26.90;99.90
22337;DHT22;14992;50.844;4.418;2022-08-19T13:53:37;26.80;99.90
22337;DHT22;14992;50.844;4.418;2022-08-19T13:56:32;26.70;99.90
22337;DHT22;14992;50.844;4.418;2022-08-19T13:59:13;26.80;99.90
22337;DHT22;14992;50.844;4.418;2022-08-19T14:02:09;26.70;99.90
22337;DHT22;14992;50.844;4.418;2022-08-19T14:04:50;26.60;99.90
22337;DHT22;14992;50.844;4.418;2022-08-19T14:07:39;26.50;99.90
22337;DHT22;14992;50.844;4.418;2022-08-19T14:10:23;26.70;99.90
22337;DHT22;14992;50.844;4.418;2022-08-19T14:13:14;26.80;99.90
22337;DHT22;14992;50.844;4.418;2022-08-19T14:15:56;26.60;99.90
22337;DHT22;14992;50.844;4.418;2022-08-19T14:18:45;26.50;99.90
22337;DHT22;14992;50.844;4.418;2022-08-19T14:21:26;26.30;99.90
22337;DHT22;14992;50.844;4.418;2022-08-19T14:24:20;26.20;99.90
22337;DHT22;14992;50.844;4.418;2022-08-19T14:27:03;25.90;99.90
22337;DHT22;14992;50.844;4.418;2022-08-19T14:29:53;25.80;99.90
22337;DHT22;14992;50.844;4.418;2022-08-19T14:32:49;25.70;99.90
22337;DHT22;14992;50.844;4.418;2022-08-19T14:35:45;25.50;99.90
22337;DHT22;14992;50.844;4.418;2022-08-19T14:38:32;25.50;99.90
22337;DHT22;14992;50.844;4.418;2022-08-19T14:41:28;25.80;99.90
22337;DHT22;14992;50.844;4.418;2022-08-19T14:44:11;25.90;99.90
22337;DHT22;14992;50.844;4.418;2022-08-19T14:47:06;25.80;99.90
22337;DHT22;14992;50.844;4.418;2022-08-19T14:49:49;25.70;99.90
22337;DHT22;14992;50.844;4.418;2022-08-19T14:52:38;25.40;99.90
22337;DHT22;14992;50.844;4.418;2022-08-19T14:55:19;25.20;99.90
22337;DHT22;14992;50.844;4.418;2022-08-19T14:58:08;25.20;99.90
22337;DHT22;14992;50.844;4.418;2022-08-19T15:01:04;25.00;99.90
22337;DHT22;14992;50.844;4.418;2022-08-19T15:03:52;25.20;99.90
22337;DHT22;14992;50.844;4.418;2022-08-19T15:06:34;25.20;99.90
22337;DHT22;14992;50.844;4.418;2022-08-19T15:09:23;25.40;99.90
22337;DHT22;14992;50.844;4.418;2022-08-19T15:12:05;25.30;99.90
22337;DHT22;14992;50.844;4.418;2022-08-19T15:15:01;25.30;99.90
22337;DHT22;14992;50.844;4.418;2022-08-19T15:17:45;25.40;99.90
22337;DHT22;14992;50.844;4.418;2022-08-19T15:20:33;25.30;99.90
22337;DHT22;14992;50.844;4.418;2022-08-19T15:23:15;25.30;99.90
22337;DHT22;14992;50.844;4.418;2022-08-19T15:26:03;25.30;99.90
22337;DHT22;14992;50.844;4.418;2022-08-19T15:28:48;25.40;99.90
22337;DHT22;14992;50.844;4.418;2022-08-19T15:31:43;25.50;99.90
22337;DHT22;14992;50.844;4.418;2022-08-19T15:34:28;25.40;99.90
22337;DHT22;14992;50.844;4.418;2022-08-19T15:37:23;25.40;99.90
22337;DHT22;14992;50.844;4.418;2022-08-19T15:40:10;25.50;99.90
22337;DHT22;14992;50.844;4.418;2022-08-19T15:42:59;25.60;99.90
22337;DHT22;14992;50.844;4.418;2022-08-19T15:45:41;25.60;99.90
22337;DHT22;14992;50.844;4.418;2022-08-19T15:48:31;25.70;99.90
22337;DHT22;14992;50.844;4.418;2022-08-19T15:51:14;25.40;99.90
22337;DHT22;14992;50.844;4.418;2022-08-19T15:54:05;25.50;99.90
22337;DHT22;14992;50.844;4.418;2022-08-19T15:56:47;25.50;99.90
22337;DHT22;14992;50.844;4.418;2022-08-19T15:59:47;25.40;99.90
22337;DHT22;14992;50.844;4.418;2022-08-19T16:02:55;25.30;99.90
22337;DHT22;14992;50.844;4.418;2022-08-19T16:06:09;25.40;99.90
22337;DHT22;14992;50.844;4.418;2022-08-19T16:09:03;25.40;99.90
22337;DHT22;14992;50.844;4.418;2022-08-19T16:12:05;25.30;99.90
22337;DHT22;14992;50.844;4.418;2022-08-19T16:14:46;25.00;99.90
22337;DHT22;14992;50.844;4.418;2022-08-19T16:17:35;24.60;99.90
22337;DHT22;14992;50.844;4.418;2022-08-19T16:20:29;24.20;99.90
22337;DHT22;14992;50.844;4.418;2022-08-19T16:23:17;24.30;99.90
22337;DHT22;14992;50.844;4.418;2022-08-19T16:26:00;24.10;99.90
22337;DHT22;14992;50.844;4.418;2022-08-19T16:28:48;24.10;99.90
22337;DHT22;14992;50.844;4.418;2022-08-19T16:31:37;24.10;99.90
22337;DHT22;14992;50.844;4.418;2022-08-19T16:34:32;24.10;99.90
22337;DHT22;14992;50.844;4.418;2022-08-19T16:37:14;24.10;99.90
22337;DHT22;14992;50.844;4.418;2022-08-19T16:40:10;24.10;99.90
22337;DHT22;14992;50.844;4.418;2022-08-19T16:42:53;24.30;99.90
22337;DHT22;14992;50.844;4.418;2022-08-19T16:45:48;24.30;99.90
22337;DHT22;14992;50.844;4.418;2022-08-19T16:48:30;24.40;99.90
22337;DHT22;14992;50.844;4.418;2022-08-19T16:51:28;24.50;99.90
22337;DHT22;14992;50.844;4.418;2022-08-19T16:54:10;24.50;99.90
22337;DHT22;14992;50.844;4.418;2022-08-19T16:57:12;24.40;99.90
22337;DHT22;14992;50.844;4.418;2022-08-19T16:59:57;24.30;99.90
22337;DHT22;14992;50.844;4.418;2022-08-19T17:02:45;24.30;99.90
22337;DHT22;14992;50.844;4.418;2022-08-19T17:05:26;24.30;99.90
22337;DHT22;14992;50.844;4.418;2022-08-19T17:08:16;24.20;99.90
22337;DHT22;14992;50.844;4.418;2022-08-19T17:10:59;24.20;99.90
22337;DHT22;14992;50.844;4.418;2022-08-19T17:13:58;24.10;99.90
22337;DHT22;14992;50.844;4.418;2022-08-19T17:16:48;24.10;99.90
22337;DHT22;14992;50.844;4.418;2022-08-19T17:19:30;24.40;99.90
22337;DHT22;14992;50.844;4.418;2022-08-19T17:22:20;24.30;99.90
22337;DHT22;14992;50.844;4.418;2022-08-19T17:25:15;24.10;99.90
22337;DHT22;14992;50.844;4.418;2022-08-19T17:27:50;24.30;99.90
22337;DHT22;14992;50.844;4.418;2022-08-19T17:30:46;24.30;99.90
22337;DHT22;14992;50.844;4.418;2022-08-19T17:33:43;24.20;99.90
22337;DHT22;14992;50.844;4.418;2022-08-19T17:36:38;24.00;99.90
22337;DHT22;14992;50.844;4.418;2022-08-19T17:39:19;24.30;99.90
22337;DHT22;14992;50.844;4.418;2022-08-19T17:42:08;24.00;99.90
22337;DHT22;14992;50.844;4.418;2022-08-19T17:44:49;24.10;99.90
22337;DHT22;14992;50.844;4.418;2022-08-19T17:47:45;24.00;99.90
22337;DHT22;14992;50.844;4.418;2022-08-19T17:50:30;23.90;99.90
22337;DHT22;14992;50.844;4.418;2022-08-19T17:53:18;23.80;99.90